sensor_id;sensor_type;location;lat;lon;timestamp;pressure;altitude;pressure_sealevel;temperature;humidity
26083;BME280;13848;49.018;12.078;2023-11-19T00:01:20;97784.66;;;4.09;100.00
26083;BME280;13848;49.018;12.078;2023-11-19T00:03:45;97782.00;;;4.09;100.00
26083;BME280;13848;49.018;12.078;2023-11-19T00:06:11;97762.91;;;4.20;100.00
26083;BME280;13848;49.018;12.078;2023-11-19T00:08:37;97748.53;;;4.21;100.00
26083;BME280;13848;49.018;12.078;2023-11-19T00:11:05;97747.41;;;4.15;100.00
26083;BME280;13848;49.018;12.078;2023-11-19T00:13:31;97740.44;;;4.14;100.00
26083;BME280;13848;49.018;12.078;2023-11-19T00:15:57;97739.78;;;4.12;100.00
26083;BME280;13848;49.018;12.078;2023-11-19T00:18:23;97732.22;;;4.16;100.00
26083;BME280;13848;49.018;12.078;2023-11-19T00:20:49;97739.66;;;4.06;100.00
26083;BME280;13848;49.018;12.078;2023-11-19T00:23:15;97728.72;;;4.00;100.00
26083;BME280;13848;49.018;12.078;2023-11-19T00:25:40;97719.91;;;4.15;100.00
26083;BME280;13848;49.018;12.078;2023-11-19T00:28:08;97716.13;;;4.09;100.00
26083;BME280;13848;49.018;12.078;2023-11-19T00:30:34;97721.34;;;4.03;100.00
26083;BME280;13848;49.018;12.078;2023-11-19T00:33:00;97715.38;;;4.00;100.00
26083;BME280;13848;49.018;12.078;2023-11-19T00:35:26;97716.94;;;4.10;100.00
26083;BME280;13848;49.018;12.078;2023-11-19T00:37:51;97718.59;;;4.11;100.00
26083;BME280;13848;49.018;12.078;2023-11-19T00:40:17;97720.97;;;4.06;100.00
26083;BME280;13848;49.018;12.078;2023-11-19T00:42:43;97700.94;;;4.10;100.00
26083;BME280;13848;49.018;12.078;2023-11-19T00:45:11;97698.94;;;4.12;100.00
26083;BME280;13848;49.018;12.078;2023-11-19T00:47:37;97699.38;;;4.00;100.00
26083;BME280;13848;49.018;12.078;2023-11-19T00:50:03;97692.50;;;4.06;100.00
26083;BME280;13848;49.018;12.078;2023-11-19T00:52:29;97696.81;;;4.07;100.00
26083;BME280;13848;49.018;12.078;2023-11-19T00:54:55;97691.56;;;4.14;100.00
26083;BME280;13848;49.018;12.078;2023-11-19T00:57:21;97687.16;;;4.21;100.00
26083;BME280;13848;49.018;12.078;2023-11-19T00:59:47;97697.94;;;4.27;100.00
26083;BME280;13848;49.018;12.078;2023-11-19T01:02:14;97692.66;;;4.05;100.00
26083;BME280;13848;49.018;12.078;2023-11-19T01:04:40;97688.28;;;4.12;100.00
26083;BME280;13848;49.018;12.078;2023-11-19T01:07:06;97680.66;;;4.23;100.00
26083;BME280;13848;49.018;12.078;2023-11-19T01:09:32;97682.31;;;4.24;100.00
26083;BME280;13848;49.018;12.078;2023-11-19T01:11:58;97674.06;;;4.11;100.00
26083;BME280;13848;49.018;12.078;2023-11-19T01:14:24;97681.19;;;4.19;100.00
26083;BME280;13848;49.018;12.078;2023-11-19T01:16:50;97672.81;;;4.22;100.00
26083;BME280;13848;49.018;12.078;2023-11-19T01:19:17;97667.19;;;4.17;100.00
26083;BME280;13848;49.018;12.078;2023-11-19T01:21:43;97667.56;;;4.28;100.00
26083;BME280;13848;49.018;12.078;2023-11-19T01:24:09;97668.56;;;4.13;100.00
26083;BME280;13848;49.018;12.078;2023-11-19T01:26:35;97659.47;;;4.22;100.00
26083;BME280;13848;49.018;12.078;2023-11-19T01:29:01;97664.25;;;4.12;100.00
26083;BME280;13848;49.018;12.078;2023-11-19T01:31:27;97661.50;;;4.20;100.00
26083;BME280;13848;49.018;12.078;2023-11-19T01:33:53;97667.13;;;4.25;100.00
26083;BME280;13848;49.018;12.078;2023-11-19T01:36:20;97661.59;;;4.12;100.00
26083;BME280;13848;49.018;12.078;2023-11-19T01:38:46;97659.56;;;4.14;100.00
26083;BME280;13848;49.018;12.078;2023-11-19T01:41:12;97645.09;;;4.23;100.00
26083;BME280;13848;49.018;12.078;2023-11-19T01:43:39;97647.78;;;4.23;100.00
26083;BME280;13848;49.018;12.078;2023-11-19T01:46:05;97651.44;;;4.07;100.00
26083;BME280;13848;49.018;12.078;2023-11-19T01:48:33;97652.28;;;4.08;100.00
26083;BME280;13848;49.018;12.078;2023-11-19T01:51:00;97647.03;;;4.14;100.00
26083;BME280;13848;49.018;12.078;2023-11-19T01:53:28;97641.66;;;3.99;100.00
26083;BME280;13848;49.018;12.078;2023-11-19T01:55:54;97644.63;;;4.05;100.00
26083;BME280;13848;49.018;12.078;2023-11-19T01:58:22;97633.59;;;4.08;100.00
26083;BME280;13848;49.018;12.078;2023-11-19T02:00:48;97633.78;;;4.21;100.00
26083;BME280;13848;49.018;12.078;2023-11-19T02:03:15;97640.69;;;4.15;100.00
26083;BME280;13848;49.018;12.078;2023-11-19T02:05:42;97638.50;;;4.19;100.00
26083;BME280;13848;49.018;12.078;2023-11-19T02:08:08;97641.41;;;4.09;100.00
26083;BME280;13848;49.018;12.078;2023-11-19T02:10:35;97632.19;;;3.97;100.00
26083;BME280;13848;49.018;12.078;2023-11-19T02:13:01;97629.00;;;4.02;100.00
26083;BME280;13848;49.018;12.078;2023-11-19T02:15:27;97625.22;;;3.96;100.00
26083;BME280;13848;49.018;12.078;2023-11-19T02:17:53;97624.38;;;3.95;100.00
26083;BME280;13848;49.018;12.078;2023-11-19T02:20:20;97632.69;;;4.00;100.00
26083;BME280;13848;49.018;12.078;2023-11-19T02:22:46;97617.22;;;4.11;100.00
26083;BME280;13848;49.018;12.078;2023-11-19T02:25:23;97612.16;;;4.01;100.00
26083;BME280;13848;49.018;12.078;2023-11-19T02:27:54;97613.53;;;3.97;100.00
26083;BME280;13848;49.018;12.078;2023-11-19T02:30:21;97601.22;;;4.11;100.00
26083;BME280;13848;49.018;12.078;2023-11-19T02:32:47;97601.94;;;4.05;100.00
26083;BME280;13848;49.018;12.078;2023-11-19T02:35:13;97583.56;;;4.10;100.00
26083;BME280;13848;49.018;12.078;2023-11-19T02:37:39;97583.94;;;4.07;100.00
26083;BME280;13848;49.018;12.078;2023-11-19T02:40:06;97580.44;;;4.21;100.00
26083;BME280;13848;49.018;12.078;2023-11-19T02:42:32;97561.13;;;4.19;100.00
26083;BME280;13848;49.018;12.078;2023-11-19T02:44:59;97551.53;;;4.10;100.00
26083;BME280;13848;49.018;12.078;2023-11-19T02:47:25;97547.09;;;3.87;100.00
26083;BME280;13848;49.018;12.078;2023-11-19T02:49:51;97543.72;;;3.93;100.00
26083;BME280;13848;49.018;12.078;2023-11-19T02:52:17;97549.31;;;3.98;100.00
26083;BME280;13848;49.018;12.078;2023-11-19T02:54:43;97550.63;;;4.03;100.00
26083;BME280;13848;49.018;12.078;2023-11-19T02:57:09;97544.84;;;4.14;100.00
26083;BME280;13848;49.018;12.078;2023-11-19T02:59:37;97560.56;;;4.09;100.00
26083;BME280;13848;49.018;12.078;2023-11-19T03:02:04;97555.31;;;4.00;100.00
26083;BME280;13848;49.018;12.078;2023-11-19T03:04:30;97552.66;;;4.00;100.00
26083;BME280;13848;49.018;12.078;2023-11-19T03:06:56;97544.91;;;4.06;100.00
26083;BME280;13848;49.018;12.078;2023-11-19T03:09:22;97546.94;;;4.04;100.00
26083;BME280;13848;49.018;12.078;2023-11-19T03:11:48;97551.34;;;3.82;100.00
26083;BME280;13848;49.018;12.078;2023-11-19T03:14:14;97554.66;;;3.98;100.00
26083;BME280;13848;49.018;12.078;2023-11-19T03:16:40;97556.69;;;3.96;100.00
26083;BME280;13848;49.018;12.078;2023-11-19T03:19:07;97550.09;;;4.07;100.00
26083;BME280;13848;49.018;12.078;2023-11-19T03:21:33;97544.19;;;4.12;100.00
26083;BME280;13848;49.018;12.078;2023-11-19T03:23:59;97545.63;;;3.99;100.00
26083;BME280;13848;49.018;12.078;2023-11-19T03:26:25;97541.50;;;3.97;100.00
26083;BME280;13848;49.018;12.078;2023-11-19T03:28:51;97540.31;;;3.99;100.00
26083;BME280;13848;49.018;12.078;2023-11-19T03:31:17;97540.31;;;3.99;100.00
26083;BME280;13848;49.018;12.078;2023-11-19T03:33:43;97536.47;;;4.02;100.00
26083;BME280;13848;49.018;12.078;2023-11-19T03:36:10;97525.50;;;3.97;100.00
26083;BME280;13848;49.018;12.078;2023-11-19T03:38:36;97528.72;;;3.92;100.00
26083;BME280;13848;49.018;12.078;2023-11-19T03:41:10;97534.16;;;3.99;100.00
26083;BME280;13848;49.018;12.078;2023-11-19T03:43:36;97534.22;;;3.76;100.00
26083;BME280;13848;49.018;12.078;2023-11-19T03:46:02;97525.59;;;3.74;100.00
26083;BME280;13848;49.018;12.078;2023-11-19T03:48:28;97524.97;;;3.72;100.00
26083;BME280;13848;49.018;12.078;2023-11-19T03:50:53;97526.88;;;3.78;100.00
26083;BME280;13848;49.018;12.078;2023-11-19T03:53:21;97526.88;;;3.78;100.00
26083;BME280;13848;49.018;12.078;2023-11-19T03:55:47;97526.97;;;3.70;100.00
26083;BME280;13848;49.018;12.078;2023-11-19T03:58:12;97533.78;;;3.72;100.00
26083;BME280;13848;49.018;12.078;2023-11-19T04:00:38;97527.72;;;3.79;100.00
26083;BME280;13848;49.018;12.078;2023-11-19T04:03:04;97529.19;;;3.66;100.00
26083;BME280;13848;49.018;12.078;2023-11-19T04:05:30;97528.25;;;3.74;100.00
26083;BME280;13848;49.018;12.078;2023-11-19T04:07:56;97526.31;;;3.68;100.00
26083;BME280;13848;49.018;12.078;2023-11-19T04:10:23;97543.97;;;3.69;100.00
26083;BME280;13848;49.018;12.078;2023-11-19T04:12:49;97532.66;;;3.82;100.00
26083;BME280;13848;49.018;12.078;2023-11-19T04:15:16;97526.06;;;3.78;100.00
26083;BME280;13848;49.018;12.078;2023-11-19T04:17:41;97536.25;;;3.74;100.00
26083;BME280;13848;49.018;12.078;2023-11-19T04:20:08;97527.63;;;3.72;100.00
26083;BME280;13848;49.018;12.078;2023-11-19T04:22:34;97530.47;;;3.85;100.00
26083;BME280;13848;49.018;12.078;2023-11-19T04:25:00;97527.72;;;3.93;100.00
26083;BME280;13848;49.018;12.078;2023-11-19T04:27:27;97513.53;;;3.93;100.00
26083;BME280;13848;49.018;12.078;2023-11-19T04:29:53;97509.69;;;3.81;100.00
26083;BME280;13848;49.018;12.078;2023-11-19T04:32:19;97499.19;;;3.64;100.00
26083;BME280;13848;49.018;12.078;2023-11-19T04:34:45;97503.91;;;3.77;100.00
26083;BME280;13848;49.018;12.078;2023-11-19T04:37:10;97506.28;;;3.72;100.00
26083;BME280;13848;49.018;12.078;2023-11-19T04:39:36;97500.97;;;3.72;100.00
26083;BME280;13848;49.018;12.078;2023-11-19T04:42:03;97486.22;;;3.76;100.00
26083;BME280;13848;49.018;12.078;2023-11-19T04:44:30;97475.84;;;3.66;100.00
26083;BME280;13848;49.018;12.078;2023-11-19T04:46:56;97467.84;;;3.81;100.00
26083;BME280;13848;49.018;12.078;2023-11-19T04:49:22;97458.09;;;3.59;100.00
26083;BME280;13848;49.018;12.078;2023-11-19T04:51:48;97439.44;;;3.59;100.00
26083;BME280;13848;49.018;12.078;2023-11-19T04:54:14;97439.88;;;3.47;100.00
26083;BME280;13848;49.018;12.078;2023-11-19T04:56:40;97419.31;;;3.56;100.00
26083;BME280;13848;49.018;12.078;2023-11-19T04:59:06;97400.41;;;3.36;100.00
26083;BME280;13848;49.018;12.078;2023-11-19T05:01:33;97411.59;;;3.46;100.00
26083;BME280;13848;49.018;12.078;2023-11-19T05:04:00;97423.66;;;3.42;100.00
26083;BME280;13848;49.018;12.078;2023-11-19T05:06:26;97425.38;;;3.65;100.00
26083;BME280;13848;49.018;12.078;2023-11-19T05:08:52;97445.88;;;3.64;100.00
26083;BME280;13848;49.018;12.078;2023-11-19T05:11:18;97452.41;;;3.62;100.00
26083;BME280;13848;49.018;12.078;2023-11-19T05:13:44;97460.56;;;3.45;100.00
26083;BME280;13848;49.018;12.078;2023-11-19T05:16:10;97467.47;;;3.55;100.00
26083;BME280;13848;49.018;12.078;2023-11-19T05:18:37;97467.84;;;3.66;100.00
26083;BME280;13848;49.018;12.078;2023-11-19T05:21:03;97465.81;;;3.54;100.00
26083;BME280;13848;49.018;12.078;2023-11-19T05:23:29;97461.97;;;3.56;100.00
26083;BME280;13848;49.018;12.078;2023-11-19T05:25:55;97471.59;;;3.57;100.00
26083;BME280;13848;49.018;12.078;2023-11-19T05:28:21;97490.56;;;3.62;100.00
26083;BME280;13848;49.018;12.078;2023-11-19T05:30:47;97482.81;;;3.53;100.00
26083;BME280;13848;49.018;12.078;2023-11-19T05:33:13;97479.41;;;3.59;100.00
26083;BME280;13848;49.018;12.078;2023-11-19T05:35:40;97474.66;;;3.69;100.00
26083;BME280;13848;49.018;12.078;2023-11-19T05:38:06;97483.66;;;3.68;100.00
26083;BME280;13848;49.018;12.078;2023-11-19T05:40:32;97483.94;;;3.73;100.00
26083;BME280;13848;49.018;12.078;2023-11-19T05:42:58;97482.94;;;3.74;100.00
26083;BME280;13848;49.018;12.078;2023-11-19T05:45:24;97486.88;;;3.63;100.00
26083;BME280;13848;49.018;12.078;2023-11-19T05:47:50;97491.47;;;3.55;100.00
26083;BME280;13848;49.018;12.078;2023-11-19T05:50:16;97477.50;;;3.67;100.00
26083;BME280;13848;49.018;12.078;2023-11-19T05:52:43;97473.91;;;3.75;100.00
26083;BME280;13848;49.018;12.078;2023-11-19T05:55:09;97474.47;;;3.56;100.00
26083;BME280;13848;49.018;12.078;2023-11-19T05:57:35;97470.78;;;3.57;100.00
26083;BME280;13848;49.018;12.078;2023-11-19T06:00:01;97466.75;;;3.61;100.00
26083;BME280;13848;49.018;12.078;2023-11-19T06:02:27;97455.91;;;3.62;100.00
26083;BME280;13848;49.018;12.078;2023-11-19T06:04:53;97446.69;;;3.65;100.00
26083;BME280;13848;49.018;12.078;2023-11-19T06:07:19;97453.72;;;3.66;100.00
26083;BME280;13848;49.018;12.078;2023-11-19T06:09:47;97453.03;;;3.64;100.00
26083;BME280;13848;49.018;12.078;2023-11-19T06:12:12;97451.56;;;3.46;100.00
26083;BME280;13848;49.018;12.078;2023-11-19T06:14:39;97450.53;;;3.47;100.00
26083;BME280;13848;49.018;12.078;2023-11-19T06:17:05;97438.53;;;3.66;100.00
26083;BME280;13848;49.018;12.078;2023-11-19T06:19:31;97447.91;;;3.62;100.00
26083;BME280;13848;49.018;12.078;2023-11-19T06:21:57;97447.16;;;3.68;100.00
26083;BME280;13848;49.018;12.078;2023-11-19T06:24:23;97434.84;;;3.67;100.00
26083;BME280;13848;49.018;12.078;2023-11-19T06:26:50;97447.06;;;3.62;100.00
26083;BME280;13848;49.018;12.078;2023-11-19T06:29:16;97435.03;;;3.66;100.00
26083;BME280;13848;49.018;12.078;2023-11-19T06:31:42;97440.00;;;3.69;100.00
26083;BME280;13848;49.018;12.078;2023-11-19T06:34:08;97440.00;;;3.69;100.00
26083;BME280;13848;49.018;12.078;2023-11-19T06:36:34;97451.66;;;3.68;100.00
26083;BME280;13848;49.018;12.078;2023-11-19T06:39:00;97453.41;;;3.76;100.00
26083;BME280;13848;49.018;12.078;2023-11-19T06:41:27;97455.34;;;3.67;100.00
26083;BME280;13848;49.018;12.078;2023-11-19T06:43:54;97463.97;;;3.69;100.00
26083;BME280;13848;49.018;12.078;2023-11-19T06:46:20;97456.09;;;3.61;100.00
26083;BME280;13848;49.018;12.078;2023-11-19T06:48:46;97459.38;;;3.63;100.00
26083;BME280;13848;49.018;12.078;2023-11-19T06:51:12;97453.78;;;3.72;100.00
26083;BME280;13848;49.018;12.078;2023-11-19T06:53:38;97448.25;;;3.74;100.00
26083;BME280;13848;49.018;12.078;2023-11-19T06:56:04;97440.00;;;3.69;100.00
26083;BME280;13848;49.018;12.078;2023-11-19T06:58:30;97437.16;;;3.56;100.00
26083;BME280;13848;49.018;12.078;2023-11-19T07:00:58;97432.16;;;3.53;100.00
26083;BME280;13848;49.018;12.078;2023-11-19T07:03:24;97445.44;;;3.61;100.00
26083;BME280;13848;49.018;12.078;2023-11-19T07:05:49;97436.97;;;3.57;100.00
26083;BME280;13848;49.018;12.078;2023-11-19T07:08:15;97442.66;;;3.69;100.00
26083;BME280;13848;49.018;12.078;2023-11-19T07:10:41;97446.25;;;3.61;100.00
26083;BME280;13848;49.018;12.078;2023-11-19T07:13:07;97438.06;;;3.63;100.00
26083;BME280;13848;49.018;12.078;2023-11-19T07:15:33;97442.66;;;3.69;100.00
26083;BME280;13848;49.018;12.078;2023-11-19T07:18:00;97439.19;;;3.83;100.00
26083;BME280;13848;49.018;12.078;2023-11-19T07:20:26;97449.09;;;3.60;100.00
26083;BME280;13848;49.018;12.078;2023-11-19T07:22:52;97452.97;;;3.72;100.00
26083;BME280;13848;49.018;12.078;2023-11-19T07:25:20;97448.06;;;3.76;100.00
26083;BME280;13848;49.018;12.078;2023-11-19T07:27:46;97451.66;;;3.68;100.00
26083;BME280;13848;49.018;12.078;2023-11-19T07:30:12;97459.94;;;3.73;100.00
26083;BME280;13848;49.018;12.078;2023-11-19T07:32:38;97460.16;;;3.71;100.00
26083;BME280;13848;49.018;12.078;2023-11-19T07:35:06;97474.75;;;3.76;100.00
26083;BME280;13848;49.018;12.078;2023-11-19T07:37:32;97470.13;;;3.69;100.00
26083;BME280;13848;49.018;12.078;2023-11-19T07:39:58;97459.41;;;3.78;100.00
26083;BME280;13848;49.018;12.078;2023-11-19T07:42:24;97462.69;;;3.65;100.00
26083;BME280;13848;49.018;12.078;2023-11-19T07:44:50;97453.72;;;3.66;100.00
26083;BME280;13848;49.018;12.078;2023-11-19T07:47:16;97462.88;;;3.49;100.00
26083;BME280;13848;49.018;12.078;2023-11-19T07:49:42;97467.78;;;3.60;100.00
26083;BME280;13848;49.018;12.078;2023-11-19T07:52:09;97468.75;;;3.59;100.00
26083;BME280;13848;49.018;12.078;2023-11-19T07:54:35;97469.88;;;3.50;100.00
26083;BME280;13848;49.018;12.078;2023-11-19T07:57:01;97460.13;;;3.57;100.00
26083;BME280;13848;49.018;12.078;2023-11-19T07:59:27;97469.69;;;3.51;100.00
26083;BME280;13848;49.018;12.078;2023-11-19T08:01:53;97463.41;;;3.59;100.00
26083;BME280;13848;49.018;12.078;2023-11-19T08:04:19;97460.94;;;3.57;100.00
26083;BME280;13848;49.018;12.078;2023-11-19T08:06:44;97477.88;;;3.50;100.00
26083;BME280;13848;49.018;12.078;2023-11-19T08:09:12;97468.56;;;3.45;100.00
26083;BME280;13848;49.018;12.078;2023-11-19T08:11:38;97465.72;;;3.47;100.00
26083;BME280;13848;49.018;12.078;2023-11-19T08:14:04;97466.09;;;3.44;100.00
26083;BME280;13848;49.018;12.078;2023-11-19T08:16:30;97470.31;;;3.53;100.00
26083;BME280;13848;49.018;12.078;2023-11-19T08:18:55;97467.38;;;3.63;100.00
26083;BME280;13848;49.018;12.078;2023-11-19T08:21:21;97459.38;;;3.63;100.00
26083;BME280;13848;49.018;12.078;2023-11-19T08:23:47;97463.78;;;3.70;100.00
26083;BME280;13848;49.018;12.078;2023-11-19T08:26:15;97463.06;;;3.62;100.00
26083;BME280;13848;49.018;12.078;2023-11-19T08:28:41;97454.25;;;3.61;100.00
26083;BME280;13848;49.018;12.078;2023-11-19T08:31:07;97451.09;;;3.58;100.00
26083;BME280;13848;49.018;12.078;2023-11-19T08:33:33;97449.00;;;3.68;100.00
26083;BME280;13848;49.018;12.078;2023-11-19T08:35:59;97458.31;;;3.72;100.00
26083;BME280;13848;49.018;12.078;2023-11-19T08:38:25;97462.63;;;3.73;100.00
26083;BME280;13848;49.018;12.078;2023-11-19T08:40:51;97459.69;;;3.83;100.00
26083;BME280;13848;49.018;12.078;2023-11-19T08:43:18;97458.75;;;3.76;100.00
26083;BME280;13848;49.018;12.078;2023-11-19T08:45:44;97472.63;;;3.86;100.00
26083;BME280;13848;49.018;12.078;2023-11-19T08:48:10;97467.50;;;3.84;100.00
26083;BME280;13848;49.018;12.078;2023-11-19T08:50:36;97455.53;;;3.80;100.00
26083;BME280;13848;49.018;12.078;2023-11-19T08:53:02;97456.00;;;3.84;100.00
26083;BME280;13848;49.018;12.078;2023-11-19T08:55:28;97453.50;;;3.82;100.00
26083;BME280;13848;49.018;12.078;2023-11-19T08:57:54;97450.34;;;3.93;100.00
26083;BME280;13848;49.018;12.078;2023-11-19T09:00:21;97454.94;;;3.99;100.00
26083;BME280;13848;49.018;12.078;2023-11-19T09:02:47;97458.75;;;3.90;100.00
26083;BME280;13848;49.018;12.078;2023-11-19T09:05:13;97458.00;;;3.96;100.00
26083;BME280;13848;49.018;12.078;2023-11-19T09:07:39;97457.44;;;4.01;100.00
26083;BME280;13848;49.018;12.078;2023-11-19T09:10:06;97458.19;;;3.95;100.00
26083;BME280;13848;49.018;12.078;2023-11-19T09:12:32;97456.91;;;3.91;100.00
26083;BME280;13848;49.018;12.078;2023-11-19T09:14:58;97459.75;;;3.89;100.00
26083;BME280;13848;49.018;12.078;2023-11-19T09:17:25;97454.03;;;3.92;100.00
26083;BME280;13848;49.018;12.078;2023-11-19T09:19:51;97450.34;;;3.93;100.00
26083;BME280;13848;49.018;12.078;2023-11-19T09:22:17;97444.66;;;3.96;100.00
26083;BME280;13848;49.018;12.078;2023-11-19T09:24:43;97439.06;;;4.06;100.00
26083;BME280;13848;49.018;12.078;2023-11-19T09:27:09;97447.22;;;4.05;100.00
26083;BME280;13848;49.018;12.078;2023-11-19T09:29:34;97445.72;;;4.17;100.00
26083;BME280;13848;49.018;12.078;2023-11-19T09:32:00;97443.78;;;4.25;100.00
26083;BME280;13848;49.018;12.078;2023-11-19T09:34:28;97431.91;;;4.28;100.00
26083;BME280;13848;49.018;12.078;2023-11-19T09:36:54;97432.72;;;4.28;100.00
26083;BME280;13848;49.018;12.078;2023-11-19T09:39:19;97446.34;;;4.34;100.00
26083;BME280;13848;49.018;12.078;2023-11-19T09:41:45;97449.34;;;4.45;100.00
26083;BME280;13848;49.018;12.078;2023-11-19T09:44:11;97438.41;;;4.40;100.00
26083;BME280;13848;49.018;12.078;2023-11-19T09:46:37;97425.22;;;4.53;100.00
26083;BME280;13848;49.018;12.078;2023-11-19T09:49:05;97424.72;;;4.65;100.00
26083;BME280;13848;49.018;12.078;2023-11-19T09:51:32;97421.75;;;4.81;100.00
26083;BME280;13848;49.018;12.078;2023-11-19T09:53:58;97431.41;;;5.03;100.00
26083;BME280;13848;49.018;12.078;2023-11-19T09:56:25;97422.88;;;5.15;100.00
26083;BME280;13848;49.018;12.078;2023-11-19T09:58:52;97412.06;;;5.57;100.00
26083;BME280;13848;49.018;12.078;2023-11-19T10:01:18;97415.59;;;5.99;100.00
26083;BME280;13848;49.018;12.078;2023-11-19T10:03:47;97424.09;;;5.75;100.00
26083;BME280;13848;49.018;12.078;2023-11-19T10:06:14;97417.88;;;5.68;100.00
26083;BME280;13848;49.018;12.078;2023-11-19T10:08:42;97426.59;;;5.83;100.00
26083;BME280;13848;49.018;12.078;2023-11-19T10:11:08;97437.16;;;5.91;100.00
26083;BME280;13848;49.018;12.078;2023-11-19T10:13:35;97426.22;;;5.86;100.00
26083;BME280;13848;49.018;12.078;2023-11-19T10:16:04;97412.91;;;5.93;100.00
26083;BME280;13848;49.018;12.078;2023-11-19T10:18:30;97415.09;;;5.89;100.00
26083;BME280;13848;49.018;12.078;2023-11-19T10:20:56;97411.06;;;5.93;100.00
26083;BME280;13848;49.018;12.078;2023-11-19T10:23:22;97402.38;;;5.91;100.00
26083;BME280;13848;49.018;12.078;2023-11-19T10:25:53;97399.97;;;6.03;100.00
26083;BME280;13848;49.018;12.078;2023-11-19T10:28:19;97390.09;;;6.03;100.00
26083;BME280;13848;49.018;12.078;2023-11-19T10:30:48;97406.19;;;6.10;100.00
26083;BME280;13848;49.018;12.078;2023-11-19T10:33:14;97395.88;;;6.13;100.00
26083;BME280;13848;49.018;12.078;2023-11-19T10:35:51;97389.69;;;6.06;100.00
26083;BME280;13848;49.018;12.078;2023-11-19T10:38:17;97397.34;;;6.09;100.00
26083;BME280;13848;49.018;12.078;2023-11-19T10:40:43;97395.09;;;6.20;100.00
26083;BME280;13848;49.018;12.078;2023-11-19T10:43:10;97385.97;;;6.07;100.00
26083;BME280;13848;49.018;12.078;2023-11-19T10:45:37;97377.13;;;6.07;100.00
26083;BME280;13848;49.018;12.078;2023-11-19T10:48:04;97374.25;;;6.08;100.00
26083;BME280;13848;49.018;12.078;2023-11-19T10:50:30;97375.50;;;6.12;100.00
26083;BME280;13848;49.018;12.078;2023-11-19T10:52:57;97378.19;;;6.19;100.00
26083;BME280;13848;49.018;12.078;2023-11-19T10:55:27;97379.25;;;6.25;100.00
26083;BME280;13848;49.018;12.078;2023-11-19T10:57:58;97380.69;;;6.21;100.00
26083;BME280;13848;49.018;12.078;2023-11-19T11:00:26;97370.16;;;6.12;100.00
26083;BME280;13848;49.018;12.078;2023-11-19T11:02:58;97363.00;;;6.26;100.00
26083;BME280;13848;49.018;12.078;2023-11-19T11:05:26;97375.38;;;6.34;100.00
26083;BME280;13848;49.018;12.078;2023-11-19T11:07:52;97364.22;;;6.37;100.00
26083;BME280;13848;49.018;12.078;2023-11-19T11:10:23;97357.25;;;6.49;100.00
26083;BME280;13848;49.018;12.078;2023-11-19T11:12:52;97362.22;;;6.52;100.00
26083;BME280;13848;49.018;12.078;2023-11-19T11:15:18;97373.16;;;6.57;100.00
26083;BME280;13848;49.018;12.078;2023-11-19T11:17:47;97363.47;;;6.56;100.00
26083;BME280;13848;49.018;12.078;2023-11-19T11:20:14;97364.06;;;6.58;100.00
26083;BME280;13848;49.018;12.078;2023-11-19T11:22:46;97358.50;;;6.60;100.00
26083;BME280;13848;49.018;12.078;2023-11-19T11:25:27;97370.69;;;6.69;100.00
26083;BME280;13848;49.018;12.078;2023-11-19T11:28:08;97365.97;;;6.91;100.00
26083;BME280;13848;49.018;12.078;2023-11-19T11:30:46;97345.31;;;7.05;100.00
26083;BME280;13848;49.018;12.078;2023-11-19T11:33:26;97349.25;;;7.09;100.00
26083;BME280;13848;49.018;12.078;2023-11-19T11:36:07;97354.34;;;7.30;100.00
26083;BME280;13848;49.018;12.078;2023-11-19T11:38:37;97353.28;;;7.51;100.00
26083;BME280;13848;49.018;12.078;2023-11-19T11:41:16;97349.13;;;8.13;100.00
26083;BME280;13848;49.018;12.078;2023-11-19T11:43:45;97353.78;;;9.19;100.00
26083;BME280;13848;49.018;12.078;2023-11-19T11:49:13;97337.50;;;10.06;100.00
26083;BME280;13848;49.018;12.078;2023-11-19T11:52:01;97341.25;;;10.05;100.00
26083;BME280;13848;49.018;12.078;2023-11-19T11:54:28;97337.06;;;9.17;97.88
26083;BME280;13848;49.018;12.078;2023-11-19T11:57:02;97339.59;;;9.30;100.00
26083;BME280;13848;49.018;12.078;2023-11-19T11:59:36;97345.41;;;8.84;99.57
26083;BME280;13848;49.018;12.078;2023-11-19T12:02:03;97334.06;;;8.75;100.00
26083;BME280;13848;49.018;12.078;2023-11-19T12:04:30;97335.13;;;8.74;100.00
26083;BME280;13848;49.018;12.078;2023-11-19T12:07:05;97317.94;;;9.44;100.00
26083;BME280;13848;49.018;12.078;2023-11-19T12:09:32;97321.50;;;9.19;100.00
26083;BME280;13848;49.018;12.078;2023-11-19T12:12:07;97331.06;;;9.15;100.00
26083;BME280;13848;49.018;12.078;2023-11-19T12:15:05;97325.41;;;9.23;100.00
26083;BME280;13848;49.018;12.078;2023-11-19T12:17:41;97301.81;;;9.80;100.00
26083;BME280;13848;49.018;12.078;2023-11-19T12:20:09;97315.75;;;10.79;100.00
26083;BME280;13848;49.018;12.078;2023-11-19T12:22:37;97301.19;;;10.57;100.00
26083;BME280;13848;49.018;12.078;2023-11-19T12:25:04;97307.19;;;10.71;100.00
26083;BME280;13848;49.018;12.078;2023-11-19T12:27:31;97294.78;;;10.81;100.00
26083;BME280;13848;49.018;12.078;2023-11-19T12:29:58;97291.03;;;11.06;100.00
26083;BME280;13848;49.018;12.078;2023-11-19T12:32:24;97288.94;;;11.08;100.00
26083;BME280;13848;49.018;12.078;2023-11-19T12:34:50;97294.63;;;11.46;100.00
26083;BME280;13848;49.018;12.078;2023-11-19T12:37:17;97289.94;;;11.54;100.00
26083;BME280;13848;49.018;12.078;2023-11-19T12:39:43;97292.53;;;12.29;100.00
26083;BME280;13848;49.018;12.078;2023-11-19T12:42:09;97291.00;;;12.05;97.82
26083;BME280;13848;49.018;12.078;2023-11-19T12:44:35;97282.97;;;11.69;98.11
26083;BME280;13848;49.018;12.078;2023-11-19T12:47:03;97277.16;;;11.61;98.50
26083;BME280;13848;49.018;12.078;2023-11-19T12:49:29;97279.25;;;11.59;97.85
26083;BME280;13848;49.018;12.078;2023-11-19T12:51:55;97274.09;;;11.57;98.11